ěÝzenÝ letovÚho provozu ╚eskÚ republiky
Letiste: LKKB Aktualizace: 13.06.2021 23:59:25  UTC
 METAR LKKB 14.06. 00:00 ...
METAR LKKB 140000Z 23003KT CAVOK 09/06 Q1025 RMK BLU=
 TAF LKKB 13.06. 23:00 ...
TAF LKKB 132300Z 1400/1500 22005KT CAVOK      BECMG 1403/1406 31004KT      TEMPO 1408/1412 SCT040      BECMG 1412/1415 VRB02KT=